sensor_id;sensor_type;location;lat;lon;timestamp;temperature;humidity
14378;DHT22;7272;53.668;9.578;2022-08-25T00:02:43;21.30;99.90
14378;DHT22;7272;53.668;9.578;2022-08-25T00:05:45;21.10;99.90
14378;DHT22;7272;53.668;9.578;2022-08-25T00:08:47;21.20;99.90
14378;DHT22;7272;53.668;9.578;2022-08-25T00:11:49;21.20;99.90
14378;DHT22;7272;53.668;9.578;2022-08-25T00:14:51;21.10;99.90
14378;DHT22;7272;53.668;9.578;2022-08-25T00:17:56;21.10;99.90
14378;DHT22;7272;53.668;9.578;2022-08-25T00:20:58;21.00;99.90
14378;DHT22;7272;53.668;9.578;2022-08-25T00:24:01;21.00;99.90
14378;DHT22;7272;53.668;9.578;2022-08-25T00:27:03;21.10;99.90
14378;DHT22;7272;53.668;9.578;2022-08-25T00:30:07;21.00;99.90
14378;DHT22;7272;53.668;9.578;2022-08-25T00:33:11;21.00;99.90
14378;DHT22;7272;53.668;9.578;2022-08-25T00:36:14;21.10;99.90
14378;DHT22;7272;53.668;9.578;2022-08-25T00:39:18;21.10;99.90
14378;DHT22;7272;53.668;9.578;2022-08-25T00:42:20;21.00;99.90
14378;DHT22;7272;53.668;9.578;2022-08-25T00:45:23;21.00;99.90
14378;DHT22;7272;53.668;9.578;2022-08-25T00:48:26;21.10;99.90
14378;DHT22;7272;53.668;9.578;2022-08-25T00:51:34;21.10;99.90
14378;DHT22;7272;53.668;9.578;2022-08-25T00:54:41;21.00;99.90
14378;DHT22;7272;53.668;9.578;2022-08-25T00:57:47;21.00;99.90
14378;DHT22;7272;53.668;9.578;2022-08-25T01:00:53;20.90;99.90
14378;DHT22;7272;53.668;9.578;2022-08-25T01:03:58;20.90;99.90
14378;DHT22;7272;53.668;9.578;2022-08-25T01:07:01;20.90;99.90
14378;DHT22;7272;53.668;9.578;2022-08-25T01:10:04;20.90;99.90
14378;DHT22;7272;53.668;9.578;2022-08-25T01:13:10;20.80;99.90
14378;DHT22;7272;53.668;9.578;2022-08-25T01:16:14;20.70;99.90
14378;DHT22;7272;53.668;9.578;2022-08-25T01:19:18;20.70;99.90
14378;DHT22;7272;53.668;9.578;2022-08-25T01:22:22;20.70;99.90
14378;DHT22;7272;53.668;9.578;2022-08-25T01:25:32;20.60;99.90
14378;DHT22;7272;53.668;9.578;2022-08-25T01:28:39;20.60;99.90
14378;DHT22;7272;53.668;9.578;2022-08-25T01:32:04;20.60;99.90
14378;DHT22;7272;53.668;9.578;2022-08-25T01:35:07;20.60;99.90
14378;DHT22;7272;53.668;9.578;2022-08-25T01:38:11;20.50;99.90
14378;DHT22;7272;53.668;9.578;2022-08-25T01:41:16;20.50;99.90
14378;DHT22;7272;53.668;9.578;2022-08-25T01:44:18;20.40;99.90
14378;DHT22;7272;53.668;9.578;2022-08-25T01:47:20;20.60;99.90
14378;DHT22;7272;53.668;9.578;2022-08-25T01:50:22;20.50;99.90
14378;DHT22;7272;53.668;9.578;2022-08-25T01:53:28;20.50;99.90
14378;DHT22;7272;53.668;9.578;2022-08-25T01:56:30;20.50;99.90
14378;DHT22;7272;53.668;9.578;2022-08-25T01:59:32;20.40;99.90
14378;DHT22;7272;53.668;9.578;2022-08-25T02:02:34;20.40;99.90
14378;DHT22;7272;53.668;9.578;2022-08-25T02:05:36;20.50;99.90
14378;DHT22;7272;53.668;9.578;2022-08-25T02:08:40;20.40;99.90
14378;DHT22;7272;53.668;9.578;2022-08-25T02:11:45;20.30;99.90
14378;DHT22;7272;53.668;9.578;2022-08-25T02:14:47;20.20;99.90
14378;DHT22;7272;53.668;9.578;2022-08-25T02:17:50;20.20;99.90
14378;DHT22;7272;53.668;9.578;2022-08-25T02:20:52;20.20;99.90
14378;DHT22;7272;53.668;9.578;2022-08-25T02:23:55;20.10;99.90
14378;DHT22;7272;53.668;9.578;2022-08-25T02:26:57;20.30;99.90
14378;DHT22;7272;53.668;9.578;2022-08-25T02:30:00;20.20;99.90
14378;DHT22;7272;53.668;9.578;2022-08-25T02:33:02;20.20;99.90
14378;DHT22;7272;53.668;9.578;2022-08-25T02:36:04;20.10;99.90
14378;DHT22;7272;53.668;9.578;2022-08-25T02:39:09;20.10;99.90
14378;DHT22;7272;53.668;9.578;2022-08-25T02:42:11;20.10;99.90
14378;DHT22;7272;53.668;9.578;2022-08-25T02:45:14;20.10;99.90
14378;DHT22;7272;53.668;9.578;2022-08-25T02:48:17;20.10;99.90
14378;DHT22;7272;53.668;9.578;2022-08-25T02:51:20;20.10;99.90
14378;DHT22;7272;53.668;9.578;2022-08-25T02:54:24;20.00;99.90
14378;DHT22;7272;53.668;9.578;2022-08-25T02:57:26;20.00;99.90
14378;DHT22;7272;53.668;9.578;2022-08-25T03:00:28;20.00;99.90
14378;DHT22;7272;53.668;9.578;2022-08-25T03:03:30;20.00;99.90
14378;DHT22;7272;53.668;9.578;2022-08-25T03:06:32;20.00;99.90
14378;DHT22;7272;53.668;9.578;2022-08-25T03:09:36;19.90;99.90
14378;DHT22;7272;53.668;9.578;2022-08-25T03:12:38;19.90;99.90
14378;DHT22;7272;53.668;9.578;2022-08-25T03:15:42;19.90;99.90
14378;DHT22;7272;53.668;9.578;2022-08-25T03:18:44;19.80;99.90
14378;DHT22;7272;53.668;9.578;2022-08-25T03:21:46;20.00;99.90
14378;DHT22;7272;53.668;9.578;2022-08-25T03:24:50;20.10;99.90
14378;DHT22;7272;53.668;9.578;2022-08-25T03:27:52;20.10;99.90
14378;DHT22;7272;53.668;9.578;2022-08-25T03:30:53;20.00;99.90
14378;DHT22;7272;53.668;9.578;2022-08-25T03:33:55;19.90;99.90
14378;DHT22;7272;53.668;9.578;2022-08-25T03:36:57;19.90;99.90
14378;DHT22;7272;53.668;9.578;2022-08-25T03:40:01;19.90;99.90
14378;DHT22;7272;53.668;9.578;2022-08-25T03:43:03;19.80;99.90
14378;DHT22;7272;53.668;9.578;2022-08-25T03:46:05;19.70;99.90
14378;DHT22;7272;53.668;9.578;2022-08-25T03:49:09;19.80;99.90
14378;DHT22;7272;53.668;9.578;2022-08-25T03:52:11;19.60;99.90
14378;DHT22;7272;53.668;9.578;2022-08-25T03:55:15;19.70;99.90
14378;DHT22;7272;53.668;9.578;2022-08-25T03:58:16;19.70;99.90
14378;DHT22;7272;53.668;9.578;2022-08-25T04:01:19;19.60;99.90
14378;DHT22;7272;53.668;9.578;2022-08-25T04:04:21;19.90;99.90
14378;DHT22;7272;53.668;9.578;2022-08-25T04:07:23;19.90;99.90
14378;DHT22;7272;53.668;9.578;2022-08-25T04:10:27;19.70;99.90
14378;DHT22;7272;53.668;9.578;2022-08-25T04:13:29;19.70;99.90
14378;DHT22;7272;53.668;9.578;2022-08-25T04:16:33;19.70;99.90
14378;DHT22;7272;53.668;9.578;2022-08-25T04:19:36;19.70;99.90
14378;DHT22;7272;53.668;9.578;2022-08-25T04:22:39;19.70;99.90
14378;DHT22;7272;53.668;9.578;2022-08-25T04:25:42;19.60;99.90
14378;DHT22;7272;53.668;9.578;2022-08-25T04:28:44;19.50;99.90
14378;DHT22;7272;53.668;9.578;2022-08-25T04:31:47;19.50;99.90
14378;DHT22;7272;53.668;9.578;2022-08-25T04:34:50;19.50;99.90
14378;DHT22;7272;53.668;9.578;2022-08-25T04:37:52;19.50;99.90
14378;DHT22;7272;53.668;9.578;2022-08-25T04:40:56;19.50;99.90
14378;DHT22;7272;53.668;9.578;2022-08-25T04:43:59;19.50;99.90
14378;DHT22;7272;53.668;9.578;2022-08-25T04:47:02;19.50;99.90
14378;DHT22;7272;53.668;9.578;2022-08-25T04:50:05;19.50;99.90
14378;DHT22;7272;53.668;9.578;2022-08-25T04:53:08;19.50;99.90
14378;DHT22;7272;53.668;9.578;2022-08-25T04:56:12;19.50;99.90
14378;DHT22;7272;53.668;9.578;2022-08-25T04:59:17;19.40;99.90
14378;DHT22;7272;53.668;9.578;2022-08-25T05:02:19;19.60;99.90
14378;DHT22;7272;53.668;9.578;2022-08-25T05:05:21;19.60;99.90
14378;DHT22;7272;53.668;9.578;2022-08-25T05:08:23;19.60;99.90
14378;DHT22;7272;53.668;9.578;2022-08-25T05:11:26;19.60;99.90
14378;DHT22;7272;53.668;9.578;2022-08-25T05:14:29;19.60;99.90
14378;DHT22;7272;53.668;9.578;2022-08-25T05:17:31;19.80;99.90
14378;DHT22;7272;53.668;9.578;2022-08-25T05:20:35;19.80;99.90
14378;DHT22;7272;53.668;9.578;2022-08-25T05:23:38;19.80;99.90
14378;DHT22;7272;53.668;9.578;2022-08-25T05:26:41;19.90;99.90
14378;DHT22;7272;53.668;9.578;2022-08-25T05:29:43;19.80;99.90
14378;DHT22;7272;53.668;9.578;2022-08-25T05:32:45;20.00;99.90
14378;DHT22;7272;53.668;9.578;2022-08-25T05:35:47;20.00;99.90
14378;DHT22;7272;53.668;9.578;2022-08-25T05:38:49;20.10;99.90
14378;DHT22;7272;53.668;9.578;2022-08-25T05:41:53;20.20;99.90
14378;DHT22;7272;53.668;9.578;2022-08-25T05:44:55;20.30;99.90
14378;DHT22;7272;53.668;9.578;2022-08-25T05:47:57;20.30;99.90
14378;DHT22;7272;53.668;9.578;2022-08-25T05:51:01;20.30;99.90
14378;DHT22;7272;53.668;9.578;2022-08-25T05:54:03;20.40;99.90
14378;DHT22;7272;53.668;9.578;2022-08-25T05:57:07;20.60;99.90
14378;DHT22;7272;53.668;9.578;2022-08-25T06:00:09;20.80;99.90
14378;DHT22;7272;53.668;9.578;2022-08-25T06:03:15;20.80;99.90
14378;DHT22;7272;53.668;9.578;2022-08-25T06:06:16;20.80;99.90
14378;DHT22;7272;53.668;9.578;2022-08-25T06:09:19;20.80;99.90
14378;DHT22;7272;53.668;9.578;2022-08-25T06:12:22;20.90;99.90
14378;DHT22;7272;53.668;9.578;2022-08-25T06:15:24;20.90;99.90
14378;DHT22;7272;53.668;9.578;2022-08-25T06:18:26;21.00;99.90
14378;DHT22;7272;53.668;9.578;2022-08-25T06:21:28;21.00;99.90
14378;DHT22;7272;53.668;9.578;2022-08-25T06:24:30;21.20;99.90
14378;DHT22;7272;53.668;9.578;2022-08-25T06:27:34;21.20;99.90
14378;DHT22;7272;53.668;9.578;2022-08-25T06:30:38;21.20;99.90
14378;DHT22;7272;53.668;9.578;2022-08-25T06:33:40;21.30;99.90
14378;DHT22;7272;53.668;9.578;2022-08-25T06:36:42;21.40;99.90
14378;DHT22;7272;53.668;9.578;2022-08-25T06:39:44;21.60;99.90
14378;DHT22;7272;53.668;9.578;2022-08-25T06:42:48;21.70;99.90
14378;DHT22;7272;53.668;9.578;2022-08-25T06:45:51;21.80;99.90
14378;DHT22;7272;53.668;9.578;2022-08-25T06:48:53;21.80;99.90
14378;DHT22;7272;53.668;9.578;2022-08-25T06:51:56;21.80;99.90
14378;DHT22;7272;53.668;9.578;2022-08-25T06:54:58;22.00;99.90
14378;DHT22;7272;53.668;9.578;2022-08-25T06:58:03;22.20;99.90
14378;DHT22;7272;53.668;9.578;2022-08-25T07:01:09;22.20;99.90
14378;DHT22;7272;53.668;9.578;2022-08-25T07:04:11;22.20;99.90
14378;DHT22;7272;53.668;9.578;2022-08-25T07:07:13;22.20;99.90
14378;DHT22;7272;53.668;9.578;2022-08-25T07:10:15;22.10;99.90
14378;DHT22;7272;53.668;9.578;2022-08-25T07:13:19;22.10;99.90
14378;DHT22;7272;53.668;9.578;2022-08-25T07:16:21;22.00;99.90
14378;DHT22;7272;53.668;9.578;2022-08-25T07:19:24;21.90;99.90
14378;DHT22;7272;53.668;9.578;2022-08-25T07:22:25;21.90;99.90
14378;DHT22;7272;53.668;9.578;2022-08-25T07:25:28;21.90;99.90
14378;DHT22;7272;53.668;9.578;2022-08-25T07:28:31;21.80;99.90
14378;DHT22;7272;53.668;9.578;2022-08-25T07:31:33;21.90;99.90
14378;DHT22;7272;53.668;9.578;2022-08-25T07:34:35;21.80;99.90
14378;DHT22;7272;53.668;9.578;2022-08-25T07:37:55;21.80;99.90
14378;DHT22;7272;53.668;9.578;2022-08-25T07:41:00;21.90;99.90
14378;DHT22;7272;53.668;9.578;2022-08-25T07:44:04;21.80;99.90
14378;DHT22;7272;53.668;9.578;2022-08-25T07:47:07;21.80;99.90
14378;DHT22;7272;53.668;9.578;2022-08-25T07:50:11;21.80;99.90
14378;DHT22;7272;53.668;9.578;2022-08-25T07:53:14;22.10;99.90
14378;DHT22;7272;53.668;9.578;2022-08-25T07:56:17;22.40;99.90
14378;DHT22;7272;53.668;9.578;2022-08-25T07:59:20;22.50;99.90
14378;DHT22;7272;53.668;9.578;2022-08-25T08:02:23;22.70;99.90
14378;DHT22;7272;53.668;9.578;2022-08-25T08:05:25;22.90;99.90
14378;DHT22;7272;53.668;9.578;2022-08-25T08:08:27;23.10;99.90
14378;DHT22;7272;53.668;9.578;2022-08-25T08:11:31;23.40;99.90
14378;DHT22;7272;53.668;9.578;2022-08-25T08:14:35;23.70;99.90
14378;DHT22;7272;53.668;9.578;2022-08-25T08:17:38;23.80;99.90
14378;DHT22;7272;53.668;9.578;2022-08-25T08:20:42;23.60;99.90
14378;DHT22;7272;53.668;9.578;2022-08-25T08:23:45;23.60;99.90
14378;DHT22;7272;53.668;9.578;2022-08-25T08:26:48;23.80;99.90
14378;DHT22;7272;53.668;9.578;2022-08-25T08:29:51;24.10;99.90
14378;DHT22;7272;53.668;9.578;2022-08-25T08:32:54;24.30;99.90
14378;DHT22;7272;53.668;9.578;2022-08-25T08:35:57;24.40;99.90
14378;DHT22;7272;53.668;9.578;2022-08-25T08:39:00;24.50;99.90
14378;DHT22;7272;53.668;9.578;2022-08-25T08:42:20;24.60;99.90
14378;DHT22;7272;53.668;9.578;2022-08-25T08:45:29;24.80;99.90
14378;DHT22;7272;53.668;9.578;2022-08-25T08:48:48;25.40;99.90
14378;DHT22;7272;53.668;9.578;2022-08-25T08:51:57;25.80;99.90
14378;DHT22;7272;53.668;9.578;2022-08-25T08:55:02;25.90;99.90
14378;DHT22;7272;53.668;9.578;2022-08-25T08:58:09;25.60;99.90
14378;DHT22;7272;53.668;9.578;2022-08-25T09:01:18;25.30;99.90
14378;DHT22;7272;53.668;9.578;2022-08-25T09:04:28;25.10;99.90
14378;DHT22;7272;53.668;9.578;2022-08-25T09:07:36;25.00;99.90
14378;DHT22;7272;53.668;9.578;2022-08-25T09:10:53;24.80;99.90
14378;DHT22;7272;53.668;9.578;2022-08-25T09:14:06;24.60;99.90
14378;DHT22;7272;53.668;9.578;2022-08-25T09:17:18;24.70;99.90
14378;DHT22;7272;53.668;9.578;2022-08-25T09:20:35;24.70;99.90
14378;DHT22;7272;53.668;9.578;2022-08-25T09:23:47;24.70;99.90
14378;DHT22;7272;53.668;9.578;2022-08-25T09:26:59;24.70;99.90
14378;DHT22;7272;53.668;9.578;2022-08-25T09:30:06;24.70;99.90
14378;DHT22;7272;53.668;9.578;2022-08-25T09:33:11;24.50;99.90
14378;DHT22;7272;53.668;9.578;2022-08-25T09:36:15;24.30;99.90
14378;DHT22;7272;53.668;9.578;2022-08-25T09:39:18;24.50;99.90
14378;DHT22;7272;53.668;9.578;2022-08-25T09:42:20;24.90;99.90
14378;DHT22;7272;53.668;9.578;2022-08-25T09:45:41;25.20;99.90
14378;DHT22;7272;53.668;9.578;2022-08-25T09:48:50;25.50;99.90
14378;DHT22;7272;53.668;9.578;2022-08-25T09:51:53;25.60;99.90
14378;DHT22;7272;53.668;9.578;2022-08-25T09:54:59;25.80;99.90
14378;DHT22;7272;53.668;9.578;2022-08-25T09:58:14;25.60;99.90
14378;DHT22;7272;53.668;9.578;2022-08-25T10:01:19;25.70;99.90
14378;DHT22;7272;53.668;9.578;2022-08-25T10:04:26;25.90;99.90
14378;DHT22;7272;53.668;9.578;2022-08-25T10:07:31;26.10;99.90
14378;DHT22;7272;53.668;9.578;2022-08-25T10:10:42;26.10;99.90
14378;DHT22;7272;53.668;9.578;2022-08-25T10:13:48;26.30;99.90
14378;DHT22;7272;53.668;9.578;2022-08-25T10:16:51;26.50;99.90
14378;DHT22;7272;53.668;9.578;2022-08-25T10:20:12;26.60;99.90
14378;DHT22;7272;53.668;9.578;2022-08-25T10:23:16;26.80;99.90
14378;DHT22;7272;53.668;9.578;2022-08-25T10:26:27;26.90;99.90
14378;DHT22;7272;53.668;9.578;2022-08-25T10:29:43;27.00;99.90
14378;DHT22;7272;53.668;9.578;2022-08-25T10:33:07;27.10;99.90
14378;DHT22;7272;53.668;9.578;2022-08-25T10:36:17;27.20;99.90
14378;DHT22;7272;53.668;9.578;2022-08-25T10:39:32;27.50;99.90
14378;DHT22;7272;53.668;9.578;2022-08-25T10:42:39;27.60;99.90
14378;DHT22;7272;53.668;9.578;2022-08-25T10:45:46;27.60;99.90
14378;DHT22;7272;53.668;9.578;2022-08-25T10:48:54;27.70;99.90
14378;DHT22;7272;53.668;9.578;2022-08-25T10:52:02;28.10;99.90
14378;DHT22;7272;53.668;9.578;2022-08-25T10:55:14;28.20;99.90
14378;DHT22;7272;53.668;9.578;2022-08-25T10:58:45;28.30;99.90
14378;DHT22;7272;53.668;9.578;2022-08-25T11:02:08;28.30;99.90
14378;DHT22;7272;53.668;9.578;2022-08-25T11:05:19;28.70;99.90
14378;DHT22;7272;53.668;9.578;2022-08-25T11:08:35;28.90;99.90
14378;DHT22;7272;53.668;9.578;2022-08-25T11:11:43;28.90;99.90
14378;DHT22;7272;53.668;9.578;2022-08-25T11:14:51;28.90;99.90
14378;DHT22;7272;53.668;9.578;2022-08-25T11:17:58;29.00;99.90
14378;DHT22;7272;53.668;9.578;2022-08-25T11:21:06;29.20;99.90
14378;DHT22;7272;53.668;9.578;2022-08-25T11:24:35;29.30;99.90
14378;DHT22;7272;53.668;9.578;2022-08-25T11:27:44;29.40;99.90
14378;DHT22;7272;53.668;9.578;2022-08-25T11:30:50;29.50;99.90
14378;DHT22;7272;53.668;9.578;2022-08-25T11:33:57;29.50;99.90
14378;DHT22;7272;53.668;9.578;2022-08-25T11:37:03;29.60;99.90
14378;DHT22;7272;53.668;9.578;2022-08-25T11:40:18;29.70;99.90
14378;DHT22;7272;53.668;9.578;2022-08-25T11:43:38;29.70;99.90
14378;DHT22;7272;53.668;9.578;2022-08-25T11:46:55;29.70;99.90
14378;DHT22;7272;53.668;9.578;2022-08-25T11:50:05;29.80;99.90
14378;DHT22;7272;53.668;9.578;2022-08-25T11:53:19;29.90;99.90
14378;DHT22;7272;53.668;9.578;2022-08-25T11:56:32;30.10;99.90
14378;DHT22;7272;53.668;9.578;2022-08-25T12:00:06;30.50;99.90
14378;DHT22;7272;53.668;9.578;2022-08-25T12:03:43;30.60;99.90
14378;DHT22;7272;53.668;9.578;2022-08-25T12:10:22;30.90;99.90
14378;DHT22;7272;53.668;9.578;2022-08-25T12:13:43;31.00;99.90
14378;DHT22;7272;53.668;9.578;2022-08-25T12:17:07;30.80;99.90
14378;DHT22;7272;53.668;9.578;2022-08-25T12:20:17;30.90;99.90
14378;DHT22;7272;53.668;9.578;2022-08-25T12:23:26;31.00;99.90
14378;DHT22;7272;53.668;9.578;2022-08-25T12:26:34;31.00;99.90
14378;DHT22;7272;53.668;9.578;2022-08-25T12:29:44;31.20;99.90
14378;DHT22;7272;53.668;9.578;2022-08-25T12:33:02;31.20;99.90
14378;DHT22;7272;53.668;9.578;2022-08-25T12:36:09;31.20;99.90
14378;DHT22;7272;53.668;9.578;2022-08-25T12:39:18;30.90;99.90
14378;DHT22;7272;53.668;9.578;2022-08-25T12:42:24;30.80;99.90
14378;DHT22;7272;53.668;9.578;2022-08-25T12:45:50;30.90;99.90
14378;DHT22;7272;53.668;9.578;2022-08-25T12:48:54;31.00;99.90
14378;DHT22;7272;53.668;9.578;2022-08-25T12:52:00;30.70;99.90
14378;DHT22;7272;53.668;9.578;2022-08-25T12:55:08;30.40;99.90
14378;DHT22;7272;53.668;9.578;2022-08-25T12:58:12;30.50;99.90
14378;DHT22;7272;53.668;9.578;2022-08-25T13:01:23;30.90;99.90
14378;DHT22;7272;53.668;9.578;2022-08-25T13:05:09;31.10;99.90
14378;DHT22;7272;53.668;9.578;2022-08-25T13:08:28;31.40;99.90
14378;DHT22;7272;53.668;9.578;2022-08-25T13:11:38;31.70;99.90
14378;DHT22;7272;53.668;9.578;2022-08-25T13:14:44;31.80;99.90
14378;DHT22;7272;53.668;9.578;2022-08-25T13:17:47;31.70;99.90
14378;DHT22;7272;53.668;9.578;2022-08-25T13:20:52;32.00;99.90
14378;DHT22;7272;53.668;9.578;2022-08-25T13:23:58;32.10;99.90
14378;DHT22;7272;53.668;9.578;2022-08-25T13:27:04;32.10;99.90
14378;DHT22;7272;53.668;9.578;2022-08-25T13:30:21;31.80;99.90
14378;DHT22;7272;53.668;9.578;2022-08-25T13:33:25;31.60;99.90
14378;DHT22;7272;53.668;9.578;2022-08-25T13:36:30;31.50;99.90
14378;DHT22;7272;53.668;9.578;2022-08-25T13:39:49;31.70;99.90
14378;DHT22;7272;53.668;9.578;2022-08-25T13:42:54;31.70;99.90
14378;DHT22;7272;53.668;9.578;2022-08-25T13:45:56;31.80;99.90
14378;DHT22;7272;53.668;9.578;2022-08-25T13:49:05;31.90;99.90
14378;DHT22;7272;53.668;9.578;2022-08-25T13:52:15;31.70;99.90
14378;DHT22;7272;53.668;9.578;2022-08-25T13:55:21;31.80;99.90
14378;DHT22;7272;53.668;9.578;2022-08-25T13:58:26;31.80;99.90
14378;DHT22;7272;53.668;9.578;2022-08-25T14:01:30;32.10;99.90
14378;DHT22;7272;53.668;9.578;2022-08-25T14:04:46;32.10;99.90
14378;DHT22;7272;53.668;9.578;2022-08-25T14:07:52;32.00;99.90
14378;DHT22;7272;53.668;9.578;2022-08-25T14:11:05;31.90;99.90
14378;DHT22;7272;53.668;9.578;2022-08-25T14:14:09;31.80;99.90
14378;DHT22;7272;53.668;9.578;2022-08-25T14:17:16;31.80;99.90
14378;DHT22;7272;53.668;9.578;2022-08-25T14:20:25;31.70;99.90
14378;DHT22;7272;53.668;9.578;2022-08-25T14:23:29;31.60;99.90
14378;DHT22;7272;53.668;9.578;2022-08-25T14:26:32;31.60;99.90
14378;DHT22;7272;53.668;9.578;2022-08-25T14:29:34;31.60;99.90
14378;DHT22;7272;53.668;9.578;2022-08-25T14:32:36;31.50;99.90
14378;DHT22;7272;53.668;9.578;2022-08-25T14:35:39;31.50;99.90
14378;DHT22;7272;53.668;9.578;2022-08-25T14:38:42;31.40;99.90
14378;DHT22;7272;53.668;9.578;2022-08-25T14:41:44;31.30;99.90
14378;DHT22;7272;53.668;9.578;2022-08-25T14:44:46;31.20;99.90
14378;DHT22;7272;53.668;9.578;2022-08-25T14:47:50;31.10;99.90
14378;DHT22;7272;53.668;9.578;2022-08-25T14:50:55;31.10;99.90
14378;DHT22;7272;53.668;9.578;2022-08-25T14:54:01;31.00;99.90
14378;DHT22;7272;53.668;9.578;2022-08-25T14:57:03;31.10;99.90
14378;DHT22;7272;53.668;9.578;2022-08-25T15:00:06;31.10;99.90
14378;DHT22;7272;53.668;9.578;2022-08-25T15:03:11;31.10;99.90
14378;DHT22;7272;53.668;9.578;2022-08-25T15:06:16;31.10;99.90
14378;DHT22;7272;53.668;9.578;2022-08-25T15:09:18;31.10;99.90
14378;DHT22;7272;53.668;9.578;2022-08-25T15:12:21;31.00;99.90
14378;DHT22;7272;53.668;9.578;2022-08-25T15:15:23;31.00;99.90
14378;DHT22;7272;53.668;9.578;2022-08-25T15:18:26;30.90;99.90
14378;DHT22;7272;53.668;9.578;2022-08-25T15:21:29;30.90;99.90
14378;DHT22;7272;53.668;9.578;2022-08-25T15:24:31;30.80;99.90
14378;DHT22;7272;53.668;9.578;2022-08-25T15:27:34;30.70;99.90
14378;DHT22;7272;53.668;9.578;2022-08-25T15:30:36;30.60;99.90
14378;DHT22;7272;53.668;9.578;2022-08-25T15:33:38;30.70;99.90
14378;DHT22;7272;53.668;9.578;2022-08-25T15:36:42;30.60;99.90
14378;DHT22;7272;53.668;9.578;2022-08-25T15:39:44;30.60;99.90
14378;DHT22;7272;53.668;9.578;2022-08-25T15:42:47;30.50;99.90
14378;DHT22;7272;53.668;9.578;2022-08-25T15:45:49;30.40;99.90
14378;DHT22;7272;53.668;9.578;2022-08-25T15:48:51;30.20;99.90
14378;DHT22;7272;53.668;9.578;2022-08-25T15:51:55;30.20;99.90
14378;DHT22;7272;53.668;9.578;2022-08-25T15:54:57;30.10;99.90
14378;DHT22;7272;53.668;9.578;2022-08-25T15:57:59;30.00;99.90
14378;DHT22;7272;53.668;9.578;2022-08-25T16:01:01;29.90;99.90
14378;DHT22;7272;53.668;9.578;2022-08-25T16:04:03;29.80;99.90
14378;DHT22;7272;53.668;9.578;2022-08-25T16:07:06;29.70;99.90
14378;DHT22;7272;53.668;9.578;2022-08-25T16:10:09;29.90;99.90
14378;DHT22;7272;53.668;9.578;2022-08-25T16:13:12;29.80;99.90
14378;DHT22;7272;53.668;9.578;2022-08-25T16:16:15;29.70;99.90
14378;DHT22;7272;53.668;9.578;2022-08-25T16:19:17;29.50;99.90
14378;DHT22;7272;53.668;9.578;2022-08-25T16:22:21;29.40;99.90
14378;DHT22;7272;53.668;9.578;2022-08-25T16:25:23;29.40;99.90
14378;DHT22;7272;53.668;9.578;2022-08-25T16:28:25;29.30;99.90
14378;DHT22;7272;53.668;9.578;2022-08-25T16:31:27;29.10;99.90
14378;DHT22;7272;53.668;9.578;2022-08-25T16:34:30;29.00;99.90
14378;DHT22;7272;53.668;9.578;2022-08-25T16:37:34;28.90;99.90
14378;DHT22;7272;53.668;9.578;2022-08-25T16:40:37;28.80;99.90
14378;DHT22;7272;53.668;9.578;2022-08-25T16:43:40;28.80;99.90
14378;DHT22;7272;53.668;9.578;2022-08-25T16:46:43;28.70;99.90
14378;DHT22;7272;53.668;9.578;2022-08-25T16:49:45;28.60;99.90
14378;DHT22;7272;53.668;9.578;2022-08-25T16:52:49;28.60;99.90
14378;DHT22;7272;53.668;9.578;2022-08-25T16:56:08;28.70;99.90
14378;DHT22;7272;53.668;9.578;2022-08-25T16:59:11;28.70;99.90
14378;DHT22;7272;53.668;9.578;2022-08-25T17:02:13;28.60;99.90
14378;DHT22;7272;53.668;9.578;2022-08-25T17:05:15;28.50;99.90
14378;DHT22;7272;53.668;9.578;2022-08-25T17:08:19;28.40;99.90
14378;DHT22;7272;53.668;9.578;2022-08-25T17:11:32;28.40;99.90
14378;DHT22;7272;53.668;9.578;2022-08-25T17:14:35;28.50;99.90
14378;DHT22;7272;53.668;9.578;2022-08-25T17:17:37;28.40;99.90
14378;DHT22;7272;53.668;9.578;2022-08-25T17:20:40;28.30;99.90
14378;DHT22;7272;53.668;9.578;2022-08-25T17:23:44;28.10;99.90
14378;DHT22;7272;53.668;9.578;2022-08-25T17:26:46;28.10;99.90
14378;DHT22;7272;53.668;9.578;2022-08-25T17:29:49;28.00;99.90
14378;DHT22;7272;53.668;9.578;2022-08-25T17:32:51;28.00;99.90
14378;DHT22;7272;53.668;9.578;2022-08-25T17:35:55;27.90;99.90
14378;DHT22;7272;53.668;9.578;2022-08-25T17:38:58;27.90;99.90
14378;DHT22;7272;53.668;9.578;2022-08-25T17:42:00;27.80;99.90
14378;DHT22;7272;53.668;9.578;2022-08-25T17:45:02;27.80;99.90
14378;DHT22;7272;53.668;9.578;2022-08-25T17:48:05;27.60;99.90
14378;DHT22;7272;53.668;9.578;2022-08-25T17:51:07;27.50;99.90
14378;DHT22;7272;53.668;9.578;2022-08-25T17:54:11;27.40;99.90
14378;DHT22;7272;53.668;9.578;2022-08-25T17:57:13;27.30;99.90
14378;DHT22;7272;53.668;9.578;2022-08-25T18:00:17;27.20;99.90
14378;DHT22;7272;53.668;9.578;2022-08-25T18:03:20;27.10;99.90
14378;DHT22;7272;53.668;9.578;2022-08-25T18:06:22;27.00;99.90
14378;DHT22;7272;53.668;9.578;2022-08-25T18:09:26;27.00;99.90
14378;DHT22;7272;53.668;9.578;2022-08-25T18:12:28;26.80;99.90
14378;DHT22;7272;53.668;9.578;2022-08-25T18:15:30;26.70;99.90
14378;DHT22;7272;53.668;9.578;2022-08-25T18:18:32;26.70;99.90
14378;DHT22;7272;53.668;9.578;2022-08-25T18:21:34;26.50;99.90
14378;DHT22;7272;53.668;9.578;2022-08-25T18:24:38;26.40;99.90
14378;DHT22;7272;53.668;9.578;2022-08-25T18:27:40;26.40;99.90
14378;DHT22;7272;53.668;9.578;2022-08-25T18:30:42;26.30;99.90
14378;DHT22;7272;53.668;9.578;2022-08-25T18:33:44;26.20;99.90
14378;DHT22;7272;53.668;9.578;2022-08-25T18:36:46;26.00;99.90
14378;DHT22;7272;53.668;9.578;2022-08-25T18:39:50;25.90;99.90
14378;DHT22;7272;53.668;9.578;2022-08-25T18:43:11;25.90;99.90
14378;DHT22;7272;53.668;9.578;2022-08-25T18:46:13;25.80;99.90
14378;DHT22;7272;53.668;9.578;2022-08-25T18:49:15;25.70;99.90
14378;DHT22;7272;53.668;9.578;2022-08-25T18:52:18;25.70;99.90
14378;DHT22;7272;53.668;9.578;2022-08-25T18:55:23;25.80;99.90
14378;DHT22;7272;53.668;9.578;2022-08-25T18:58:25;25.70;99.90
14378;DHT22;7272;53.668;9.578;2022-08-25T19:01:27;25.70;99.90
14378;DHT22;7272;53.668;9.578;2022-08-25T19:04:29;25.60;99.90
14378;DHT22;7272;53.668;9.578;2022-08-25T19:07:32;25.40;99.90
14378;DHT22;7272;53.668;9.578;2022-08-25T19:10:36;25.30;99.90
14378;DHT22;7272;53.668;9.578;2022-08-25T19:13:39;25.20;99.90
14378;DHT22;7272;53.668;9.578;2022-08-25T19:16:41;25.10;99.90
14378;DHT22;7272;53.668;9.578;2022-08-25T19:19:43;25.00;99.90
14378;DHT22;7272;53.668;9.578;2022-08-25T19:22:46;24.90;99.90
14378;DHT22;7272;53.668;9.578;2022-08-25T19:25:50;25.10;99.90
14378;DHT22;7272;53.668;9.578;2022-08-25T19:28:52;25.10;99.90
14378;DHT22;7272;53.668;9.578;2022-08-25T19:31:54;24.90;99.90
14378;DHT22;7272;53.668;9.578;2022-08-25T19:34:57;24.90;99.90
14378;DHT22;7272;53.668;9.578;2022-08-25T19:38:01;24.80;99.90
14378;DHT22;7272;53.668;9.578;2022-08-25T19:41:05;24.70;99.90
14378;DHT22;7272;53.668;9.578;2022-08-25T19:44:09;24.60;99.90
14378;DHT22;7272;53.668;9.578;2022-08-25T19:47:11;24.80;99.90
14378;DHT22;7272;53.668;9.578;2022-08-25T19:50:14;24.70;99.90
14378;DHT22;7272;53.668;9.578;2022-08-25T19:53:17;24.60;99.90